sensor_id;sensor_type;location;lat;lon;timestamp;P1;durP1;ratioP1;P2;durP2;ratioP2
20454;SDS011;10386;54.314;10.022;2023-06-22T00:01:19;5.10;;;3.67;;
20454;SDS011;10386;54.314;10.022;2023-06-22T00:03:46;9.77;;;4.13;;
20454;SDS011;10386;54.314;10.022;2023-06-22T00:06:13;6.70;;;3.87;;
20454;SDS011;10386;54.314;10.022;2023-06-22T00:08:40;6.67;;;3.60;;
20454;SDS011;10386;54.314;10.022;2023-06-22T00:11:07;7.27;;;4.27;;
20454;SDS011;10386;54.314;10.022;2023-06-22T00:13:34;6.60;;;3.90;;
20454;SDS011;10386;54.314;10.022;2023-06-22T00:16:01;7.90;;;4.20;;
20454;SDS011;10386;54.314;10.022;2023-06-22T00:18:28;5.63;;;3.67;;
20454;SDS011;10386;54.314;10.022;2023-06-22T00:20:57;5.37;;;3.57;;
20454;SDS011;10386;54.314;10.022;2023-06-22T00:23:26;5.07;;;3.90;;
20454;SDS011;10386;54.314;10.022;2023-06-22T00:25:53;7.73;;;3.90;;
20454;SDS011;10386;54.314;10.022;2023-06-22T00:28:20;6.43;;;3.90;;
20454;SDS011;10386;54.314;10.022;2023-06-22T00:30:47;7.33;;;4.23;;
20454;SDS011;10386;54.314;10.022;2023-06-22T00:33:15;6.00;;;3.90;;
20454;SDS011;10386;54.314;10.022;2023-06-22T00:35:43;5.80;;;4.00;;
20454;SDS011;10386;54.314;10.022;2023-06-22T00:38:10;4.43;;;3.47;;
20454;SDS011;10386;54.314;10.022;2023-06-22T00:40:37;5.80;;;3.90;;
20454;SDS011;10386;54.314;10.022;2023-06-22T00:43:04;7.77;;;3.70;;
20454;SDS011;10386;54.314;10.022;2023-06-22T00:45:32;4.93;;;3.60;;
20454;SDS011;10386;54.314;10.022;2023-06-22T00:47:59;5.33;;;3.90;;
20454;SDS011;10386;54.314;10.022;2023-06-22T00:50:27;6.53;;;3.83;;
20454;SDS011;10386;54.314;10.022;2023-06-22T00:53:05;6.10;;;4.03;;
20454;SDS011;10386;54.314;10.022;2023-06-22T00:55:45;6.20;;;4.17;;
20454;SDS011;10386;54.314;10.022;2023-06-22T00:58:19;7.10;;;4.30;;
20454;SDS011;10386;54.314;10.022;2023-06-22T01:00:48;4.90;;;4.00;;
20454;SDS011;10386;54.314;10.022;2023-06-22T01:03:15;5.70;;;3.83;;
20454;SDS011;10386;54.314;10.022;2023-06-22T01:05:43;6.83;;;4.10;;
20454;SDS011;10386;54.314;10.022;2023-06-22T01:08:20;6.43;;;3.90;;
20454;SDS011;10386;54.314;10.022;2023-06-22T01:16:17;4.67;;;3.80;;
20454;SDS011;10386;54.314;10.022;2023-06-22T01:19:05;7.43;;;4.23;;
20454;SDS011;10386;54.314;10.022;2023-06-22T01:21:43;4.23;;;3.30;;
20454;SDS011;10386;54.314;10.022;2023-06-22T01:24:20;4.57;;;3.47;;
20454;SDS011;10386;54.314;10.022;2023-06-22T01:29:56;6.63;;;3.57;;
20454;SDS011;10386;54.314;10.022;2023-06-22T01:32:28;4.97;;;3.80;;
20454;SDS011;10386;54.314;10.022;2023-06-22T01:35:00;5.37;;;3.60;;
20454;SDS011;10386;54.314;10.022;2023-06-22T01:37:28;5.77;;;4.00;;
20454;SDS011;10386;54.314;10.022;2023-06-22T01:39:56;5.07;;;3.53;;
20454;SDS011;10386;54.314;10.022;2023-06-22T01:42:24;4.37;;;3.80;;
20454;SDS011;10386;54.314;10.022;2023-06-22T01:44:52;4.60;;;3.90;;
20454;SDS011;10386;54.314;10.022;2023-06-22T01:47:21;5.20;;;3.80;;
20454;SDS011;10386;54.314;10.022;2023-06-22T01:49:49;7.00;;;3.80;;
20454;SDS011;10386;54.314;10.022;2023-06-22T01:52:20;7.47;;;4.13;;
20454;SDS011;10386;54.314;10.022;2023-06-22T01:54:50;6.07;;;3.77;;
20454;SDS011;10386;54.314;10.022;2023-06-22T01:57:17;5.03;;;3.80;;
20454;SDS011;10386;54.314;10.022;2023-06-22T02:02:29;8.60;;;4.53;;
20454;SDS011;10386;54.314;10.022;2023-06-22T02:05:04;9.40;;;5.00;;
20454;SDS011;10386;54.314;10.022;2023-06-22T02:07:36;7.37;;;4.13;;
20454;SDS011;10386;54.314;10.022;2023-06-22T02:10:09;9.43;;;4.10;;
20454;SDS011;10386;54.314;10.022;2023-06-22T02:12:38;6.13;;;4.30;;
20454;SDS011;10386;54.314;10.022;2023-06-22T02:15:07;8.53;;;4.63;;
20454;SDS011;10386;54.314;10.022;2023-06-22T02:17:36;6.70;;;4.23;;
20454;SDS011;10386;54.314;10.022;2023-06-22T02:20:03;8.13;;;4.50;;
20454;SDS011;10386;54.314;10.022;2023-06-22T02:22:34;6.47;;;4.33;;
20454;SDS011;10386;54.314;10.022;2023-06-22T02:25:01;8.53;;;4.47;;
20454;SDS011;10386;54.314;10.022;2023-06-22T02:27:29;6.63;;;4.43;;
20454;SDS011;10386;54.314;10.022;2023-06-22T02:29:56;13.03;;;5.07;;
20454;SDS011;10386;54.314;10.022;2023-06-22T02:32:23;7.83;;;4.70;;
20454;SDS011;10386;54.314;10.022;2023-06-22T02:34:50;6.30;;;4.70;;
20454;SDS011;10386;54.314;10.022;2023-06-22T02:37:17;8.60;;;4.27;;
20454;SDS011;10386;54.314;10.022;2023-06-22T02:39:44;7.67;;;4.40;;
20454;SDS011;10386;54.314;10.022;2023-06-22T02:42:11;11.23;;;4.93;;
20454;SDS011;10386;54.314;10.022;2023-06-22T02:44:37;6.43;;;4.27;;
20454;SDS011;10386;54.314;10.022;2023-06-22T02:47:04;6.47;;;4.30;;
20454;SDS011;10386;54.314;10.022;2023-06-22T02:49:31;7.97;;;4.63;;
20454;SDS011;10386;54.314;10.022;2023-06-22T02:51:58;6.23;;;4.60;;
20454;SDS011;10386;54.314;10.022;2023-06-22T02:54:25;8.97;;;4.50;;
20454;SDS011;10386;54.314;10.022;2023-06-22T02:56:52;4.60;;;3.50;;
20454;SDS011;10386;54.314;10.022;2023-06-22T02:59:19;7.37;;;4.33;;
20454;SDS011;10386;54.314;10.022;2023-06-22T03:01:50;4.57;;;3.77;;
20454;SDS011;10386;54.314;10.022;2023-06-22T03:04:17;8.50;;;3.87;;
20454;SDS011;10386;54.314;10.022;2023-06-22T03:06:44;3.57;;;3.20;;
20454;SDS011;10386;54.314;10.022;2023-06-22T03:09:17;4.00;;;3.30;;
20454;SDS011;10386;54.314;10.022;2023-06-22T03:11:44;4.87;;;4.30;;
20454;SDS011;10386;54.314;10.022;2023-06-22T03:14:11;7.10;;;3.70;;
20454;SDS011;10386;54.314;10.022;2023-06-22T03:16:38;6.57;;;4.20;;
20454;SDS011;10386;54.314;10.022;2023-06-22T03:19:06;9.00;;;4.23;;
20454;SDS011;10386;54.314;10.022;2023-06-22T03:21:33;6.43;;;4.10;;
20454;SDS011;10386;54.314;10.022;2023-06-22T03:24:00;6.73;;;4.80;;
20454;SDS011;10386;54.314;10.022;2023-06-22T03:26:27;8.60;;;5.03;;
20454;SDS011;10386;54.314;10.022;2023-06-22T03:28:54;12.13;;;4.60;;
20454;SDS011;10386;54.314;10.022;2023-06-22T03:31:21;7.23;;;4.73;;
20454;SDS011;10386;54.314;10.022;2023-06-22T03:33:48;6.60;;;3.70;;
20454;SDS011;10386;54.314;10.022;2023-06-22T03:36:19;5.03;;;3.87;;
20454;SDS011;10386;54.314;10.022;2023-06-22T03:38:46;7.33;;;4.23;;
20454;SDS011;10386;54.314;10.022;2023-06-22T03:41:14;5.93;;;3.90;;
20454;SDS011;10386;54.314;10.022;2023-06-22T03:43:41;6.33;;;4.50;;
20454;SDS011;10386;54.314;10.022;2023-06-22T03:46:08;8.03;;;4.50;;
20454;SDS011;10386;54.314;10.022;2023-06-22T03:48:35;7.50;;;4.73;;
20454;SDS011;10386;54.314;10.022;2023-06-22T03:51:02;6.93;;;4.77;;
20454;SDS011;10386;54.314;10.022;2023-06-22T03:53:32;6.67;;;5.20;;
20454;SDS011;10386;54.314;10.022;2023-06-22T03:55:59;8.80;;;6.13;;
20454;SDS011;10386;54.314;10.022;2023-06-22T03:58:26;9.03;;;5.30;;
20454;SDS011;10386;54.314;10.022;2023-06-22T04:00:52;7.10;;;5.30;;
20454;SDS011;10386;54.314;10.022;2023-06-22T04:03:20;8.17;;;5.83;;
20454;SDS011;10386;54.314;10.022;2023-06-22T04:05:47;9.87;;;5.90;;
20454;SDS011;10386;54.314;10.022;2023-06-22T04:08:15;8.17;;;5.37;;
20454;SDS011;10386;54.314;10.022;2023-06-22T04:10:42;9.27;;;5.53;;
20454;SDS011;10386;54.314;10.022;2023-06-22T04:13:09;11.07;;;6.17;;
20454;SDS011;10386;54.314;10.022;2023-06-22T04:15:36;9.27;;;6.23;;
20454;SDS011;10386;54.314;10.022;2023-06-22T04:18:03;9.00;;;5.70;;
20454;SDS011;10386;54.314;10.022;2023-06-22T04:20:30;18.40;;;8.10;;
20454;SDS011;10386;54.314;10.022;2023-06-22T04:22:58;9.50;;;6.70;;
20454;SDS011;10386;54.314;10.022;2023-06-22T04:25:25;13.53;;;7.47;;
20454;SDS011;10386;54.314;10.022;2023-06-22T04:27:52;15.73;;;8.57;;
20454;SDS011;10386;54.314;10.022;2023-06-22T04:30:18;15.40;;;8.77;;
20454;SDS011;10386;54.314;10.022;2023-06-22T04:32:45;20.60;;;9.93;;
20454;SDS011;10386;54.314;10.022;2023-06-22T04:35:22;15.23;;;8.85;;
20454;SDS011;10386;54.314;10.022;2023-06-22T04:37:52;15.63;;;9.70;;
20454;SDS011;10386;54.314;10.022;2023-06-22T04:40:22;14.48;;;9.02;;
20454;SDS011;10386;54.314;10.022;2023-06-22T04:42:49;14.38;;;8.80;;
20454;SDS011;10386;54.314;10.022;2023-06-22T04:45:20;15.00;;;8.95;;
20454;SDS011;10386;54.314;10.022;2023-06-22T04:47:48;11.75;;;8.18;;
20454;SDS011;10386;54.314;10.022;2023-06-22T04:50:15;18.05;;;8.68;;
20454;SDS011;10386;54.314;10.022;2023-06-22T04:52:42;16.20;;;9.20;;
20454;SDS011;10386;54.314;10.022;2023-06-22T04:55:09;15.98;;;9.90;;
20454;SDS011;10386;54.314;10.022;2023-06-22T04:57:38;17.58;;;10.50;;
20454;SDS011;10386;54.314;10.022;2023-06-22T05:00:06;16.27;;;10.90;;
20454;SDS011;10386;54.314;10.022;2023-06-22T05:02:43;17.02;;;9.88;;
20454;SDS011;10386;54.314;10.022;2023-06-22T05:05:15;17.27;;;10.40;;
20454;SDS011;10386;54.314;10.022;2023-06-22T05:07:43;19.27;;;10.45;;
20454;SDS011;10386;54.314;10.022;2023-06-22T05:10:11;19.13;;;10.30;;
20454;SDS011;10386;54.314;10.022;2023-06-22T05:12:45;18.13;;;10.67;;
20454;SDS011;10386;54.314;10.022;2023-06-22T05:15:12;17.48;;;10.20;;
20454;SDS011;10386;54.314;10.022;2023-06-22T05:17:39;19.90;;;10.63;;
20454;SDS011;10386;54.314;10.022;2023-06-22T05:20:15;18.27;;;11.03;;
20454;SDS011;10386;54.314;10.022;2023-06-22T05:22:44;17.75;;;9.80;;
20454;SDS011;10386;54.314;10.022;2023-06-22T05:25:12;15.88;;;10.27;;
20454;SDS011;10386;54.314;10.022;2023-06-22T05:27:39;15.48;;;9.80;;
20454;SDS011;10386;54.314;10.022;2023-06-22T05:30:07;17.00;;;9.73;;
20454;SDS011;10386;54.314;10.022;2023-06-22T05:32:34;13.13;;;9.18;;
20454;SDS011;10386;54.314;10.022;2023-06-22T05:35:02;14.67;;;9.67;;
20454;SDS011;10386;54.314;10.022;2023-06-22T05:37:30;17.52;;;10.05;;
20454;SDS011;10386;54.314;10.022;2023-06-22T05:39:57;16.20;;;9.18;;
20454;SDS011;10386;54.314;10.022;2023-06-22T05:42:23;18.08;;;8.75;;
20454;SDS011;10386;54.314;10.022;2023-06-22T05:44:55;10.70;;;7.10;;
20454;SDS011;10386;54.314;10.022;2023-06-22T05:47:29;13.77;;;7.55;;
20454;SDS011;10386;54.314;10.022;2023-06-22T05:50:08;13.85;;;7.63;;
20454;SDS011;10386;54.314;10.022;2023-06-22T05:52:38;11.18;;;7.13;;
20454;SDS011;10386;54.314;10.022;2023-06-22T05:55:05;12.98;;;7.75;;
20454;SDS011;10386;54.314;10.022;2023-06-22T05:57:32;10.98;;;6.45;;
20454;SDS011;10386;54.314;10.022;2023-06-22T05:59:59;11.23;;;6.32;;
20454;SDS011;10386;54.314;10.022;2023-06-22T06:02:26;8.43;;;5.40;;
20454;SDS011;10386;54.314;10.022;2023-06-22T06:04:52;12.10;;;6.00;;
20454;SDS011;10386;54.314;10.022;2023-06-22T06:07:20;10.57;;;6.45;;
20454;SDS011;10386;54.314;10.022;2023-06-22T06:09:48;14.27;;;7.28;;
20454;SDS011;10386;54.314;10.022;2023-06-22T06:12:15;13.52;;;6.53;;
20454;SDS011;10386;54.314;10.022;2023-06-22T06:14:42;9.98;;;5.50;;
20454;SDS011;10386;54.314;10.022;2023-06-22T06:17:08;9.43;;;5.35;;
20454;SDS011;10386;54.314;10.022;2023-06-22T06:19:35;6.43;;;4.72;;
20454;SDS011;10386;54.314;10.022;2023-06-22T06:22:02;6.00;;;4.53;;
20454;SDS011;10386;54.314;10.022;2023-06-22T06:24:29;8.73;;;4.32;;
20454;SDS011;10386;54.314;10.022;2023-06-22T06:26:56;8.65;;;5.03;;
20454;SDS011;10386;54.314;10.022;2023-06-22T06:29:23;10.88;;;5.10;;
20454;SDS011;10386;54.314;10.022;2023-06-22T06:31:50;9.63;;;4.45;;
20454;SDS011;10386;54.314;10.022;2023-06-22T06:34:20;10.85;;;5.10;;
20454;SDS011;10386;54.314;10.022;2023-06-22T06:36:46;7.72;;;3.97;;
20454;SDS011;10386;54.314;10.022;2023-06-22T06:39:13;8.15;;;4.18;;
20454;SDS011;10386;54.314;10.022;2023-06-22T06:41:40;6.25;;;4.13;;
20454;SDS011;10386;54.314;10.022;2023-06-22T06:44:07;7.57;;;4.30;;
20454;SDS011;10386;54.314;10.022;2023-06-22T06:46:34;5.72;;;3.72;;
20454;SDS011;10386;54.314;10.022;2023-06-22T06:49:01;6.68;;;2.60;;
20454;SDS011;10386;54.314;10.022;2023-06-22T06:51:27;4.53;;;3.33;;
20454;SDS011;10386;54.314;10.022;2023-06-22T06:53:54;5.97;;;3.75;;
20454;SDS011;10386;54.314;10.022;2023-06-22T06:56:21;6.05;;;3.60;;
20454;SDS011;10386;54.314;10.022;2023-06-22T06:58:49;5.10;;;3.63;;
20454;SDS011;10386;54.314;10.022;2023-06-22T07:01:17;4.78;;;3.13;;
20454;SDS011;10386;54.314;10.022;2023-06-22T07:03:48;4.75;;;2.88;;
20454;SDS011;10386;54.314;10.022;2023-06-22T07:06:15;4.05;;;3.15;;
20454;SDS011;10386;54.314;10.022;2023-06-22T07:08:42;4.60;;;3.17;;
20454;SDS011;10386;54.314;10.022;2023-06-22T07:11:09;4.25;;;3.10;;
20454;SDS011;10386;54.314;10.022;2023-06-22T07:13:36;4.85;;;3.05;;
20454;SDS011;10386;54.314;10.022;2023-06-22T07:16:03;3.95;;;2.75;;
20454;SDS011;10386;54.314;10.022;2023-06-22T07:18:30;5.10;;;2.80;;
20454;SDS011;10386;54.314;10.022;2023-06-22T07:20:57;7.13;;;2.85;;
20454;SDS011;10386;54.314;10.022;2023-06-22T07:23:24;4.15;;;2.90;;
20454;SDS011;10386;54.314;10.022;2023-06-22T07:25:51;5.13;;;3.00;;
20454;SDS011;10386;54.314;10.022;2023-06-22T07:28:21;5.38;;;2.83;;
20454;SDS011;10386;54.314;10.022;2023-06-22T07:30:48;4.53;;;2.72;;
20454;SDS011;10386;54.314;10.022;2023-06-22T07:33:19;2.70;;;2.45;;
20454;SDS011;10386;54.314;10.022;2023-06-22T07:35:45;2.72;;;2.45;;
20454;SDS011;10386;54.314;10.022;2023-06-22T07:38:13;3.75;;;2.35;;
20454;SDS011;10386;54.314;10.022;2023-06-22T07:40:41;2.85;;;2.30;;
20454;SDS011;10386;54.314;10.022;2023-06-22T07:43:08;5.57;;;2.60;;
20454;SDS011;10386;54.314;10.022;2023-06-22T07:45:37;3.58;;;2.40;;
20454;SDS011;10386;54.314;10.022;2023-06-22T07:48:09;2.80;;;2.60;;
20454;SDS011;10386;54.314;10.022;2023-06-22T07:50:36;2.67;;;2.30;;
20454;SDS011;10386;54.314;10.022;2023-06-22T07:53:02;6.07;;;2.90;;
20454;SDS011;10386;54.314;10.022;2023-06-22T07:55:29;2.78;;;2.25;;
20454;SDS011;10386;54.314;10.022;2023-06-22T07:57:56;3.17;;;2.85;;
20454;SDS011;10386;54.314;10.022;2023-06-22T08:00:24;6.63;;;2.63;;
20454;SDS011;10386;54.314;10.022;2023-06-22T08:02:51;3.53;;;2.35;;
20454;SDS011;10386;54.314;10.022;2023-06-22T08:05:18;5.10;;;3.08;;
20454;SDS011;10386;54.314;10.022;2023-06-22T08:07:59;3.97;;;2.40;;
20454;SDS011;10386;54.314;10.022;2023-06-22T08:10:26;3.42;;;2.47;;
20454;SDS011;10386;54.314;10.022;2023-06-22T08:12:53;5.10;;;2.60;;
20454;SDS011;10386;54.314;10.022;2023-06-22T08:15:20;3.17;;;2.78;;
20454;SDS011;10386;54.314;10.022;2023-06-22T08:17:48;4.78;;;2.53;;
20454;SDS011;10386;54.314;10.022;2023-06-22T08:20:15;3.38;;;2.67;;
20454;SDS011;10386;54.314;10.022;2023-06-22T08:22:42;3.72;;;2.47;;
20454;SDS011;10386;54.314;10.022;2023-06-22T08:25:12;4.38;;;2.47;;
20454;SDS011;10386;54.314;10.022;2023-06-22T08:27:40;4.47;;;2.95;;
20454;SDS011;10386;54.314;10.022;2023-06-22T08:30:07;2.60;;;2.40;;
20454;SDS011;10386;54.314;10.022;2023-06-22T08:32:37;6.70;;;2.30;;
20454;SDS011;10386;54.314;10.022;2023-06-22T08:35:04;3.20;;;2.40;;
20454;SDS011;10386;54.314;10.022;2023-06-22T08:37:34;2.58;;;2.17;;
20454;SDS011;10386;54.314;10.022;2023-06-22T08:40:03;2.70;;;2.30;;
20454;SDS011;10386;54.314;10.022;2023-06-22T08:42:35;5.07;;;2.65;;
20454;SDS011;10386;54.314;10.022;2023-06-22T08:45:03;6.38;;;2.35;;
20454;SDS011;10386;54.314;10.022;2023-06-22T08:47:30;3.70;;;2.40;;
20454;SDS011;10386;54.314;10.022;2023-06-22T08:49:57;3.83;;;2.75;;
20454;SDS011;10386;54.314;10.022;2023-06-22T08:52:24;5.05;;;2.60;;
20454;SDS011;10386;54.314;10.022;2023-06-22T08:54:51;3.65;;;2.65;;
20454;SDS011;10386;54.314;10.022;2023-06-22T08:57:18;3.20;;;2.50;;
20454;SDS011;10386;54.314;10.022;2023-06-22T08:59:45;5.28;;;2.33;;
20454;SDS011;10386;54.314;10.022;2023-06-22T09:02:11;6.53;;;2.30;;
20454;SDS011;10386;54.314;10.022;2023-06-22T09:04:41;2.33;;;2.08;;
20454;SDS011;10386;54.314;10.022;2023-06-22T09:07:09;2.67;;;2.10;;
20454;SDS011;10386;54.314;10.022;2023-06-22T09:09:35;3.47;;;2.20;;
20454;SDS011;10386;54.314;10.022;2023-06-22T09:12:02;2.58;;;1.90;;
20454;SDS011;10386;54.314;10.022;2023-06-22T09:14:29;2.72;;;2.10;;
20454;SDS011;10386;54.314;10.022;2023-06-22T09:16:56;2.63;;;2.03;;
20454;SDS011;10386;54.314;10.022;2023-06-22T09:19:23;2.38;;;2.03;;
20454;SDS011;10386;54.314;10.022;2023-06-22T09:21:50;2.70;;;1.92;;
20454;SDS011;10386;54.314;10.022;2023-06-22T09:24:17;2.75;;;2.30;;
20454;SDS011;10386;54.314;10.022;2023-06-22T09:26:43;2.17;;;1.95;;
20454;SDS011;10386;54.314;10.022;2023-06-22T09:29:10;3.58;;;2.05;;
20454;SDS011;10386;54.314;10.022;2023-06-22T09:31:37;3.10;;;2.17;;
20454;SDS011;10386;54.314;10.022;2023-06-22T09:34:04;2.03;;;1.92;;
20454;SDS011;10386;54.314;10.022;2023-06-22T09:36:31;2.00;;;1.80;;
20454;SDS011;10386;54.314;10.022;2023-06-22T09:38:57;2.00;;;1.77;;
20454;SDS011;10386;54.314;10.022;2023-06-22T09:41:25;2.72;;;2.00;;
20454;SDS011;10386;54.314;10.022;2023-06-22T09:43:52;3.60;;;2.08;;
20454;SDS011;10386;54.314;10.022;2023-06-22T09:46:22;3.88;;;2.28;;
20454;SDS011;10386;54.314;10.022;2023-06-22T09:48:51;2.45;;;2.20;;
20454;SDS011;10386;54.314;10.022;2023-06-22T09:51:18;4.13;;;2.10;;
20454;SDS011;10386;54.314;10.022;2023-06-22T09:53:47;2.03;;;1.85;;
20454;SDS011;10386;54.314;10.022;2023-06-22T09:56:14;2.50;;;2.28;;
20454;SDS011;10386;54.314;10.022;2023-06-22T09:58:41;3.15;;;1.88;;
20454;SDS011;10386;54.314;10.022;2023-06-22T10:01:09;2.35;;;1.77;;
20454;SDS011;10386;54.314;10.022;2023-06-22T10:03:40;2.85;;;2.10;;
20454;SDS011;10386;54.314;10.022;2023-06-22T10:06:10;2.92;;;2.05;;
20454;SDS011;10386;54.314;10.022;2023-06-22T10:08:37;3.90;;;1.90;;
20454;SDS011;10386;54.314;10.022;2023-06-22T10:11:05;2.42;;;2.05;;
20454;SDS011;10386;54.314;10.022;2023-06-22T10:13:32;3.00;;;2.20;;
20454;SDS011;10386;54.314;10.022;2023-06-22T10:15:59;3.10;;;2.08;;
20454;SDS011;10386;54.314;10.022;2023-06-22T10:18:26;2.85;;;1.77;;
20454;SDS011;10386;54.314;10.022;2023-06-22T10:20:52;2.22;;;2.03;;
20454;SDS011;10386;54.314;10.022;2023-06-22T10:23:19;4.68;;;2.00;;
20454;SDS011;10386;54.314;10.022;2023-06-22T10:25:47;3.17;;;1.95;;
20454;SDS011;10386;54.314;10.022;2023-06-22T10:28:14;5.32;;;1.75;;
20454;SDS011;10386;54.314;10.022;2023-06-22T10:30:41;2.15;;;1.95;;
20454;SDS011;10386;54.314;10.022;2023-06-22T10:33:09;3.00;;;1.70;;
20454;SDS011;10386;54.314;10.022;2023-06-22T10:35:36;2.08;;;1.88;;
20454;SDS011;10386;54.314;10.022;2023-06-22T10:38:04;3.92;;;1.90;;
20454;SDS011;10386;54.314;10.022;2023-06-22T10:40:31;1.98;;;1.88;;
20454;SDS011;10386;54.314;10.022;2023-06-22T10:42:58;1.83;;;1.70;;
20454;SDS011;10386;54.314;10.022;2023-06-22T10:45:25;1.70;;;1.60;;
20454;SDS011;10386;54.314;10.022;2023-06-22T10:47:54;2.67;;;2.35;;
20454;SDS011;10386;54.314;10.022;2023-06-22T10:50:21;4.80;;;1.83;;
20454;SDS011;10386;54.314;10.022;2023-06-22T10:52:50;1.90;;;1.80;;
20454;SDS011;10386;54.314;10.022;2023-06-22T10:55:17;2.28;;;2.08;;
20454;SDS011;10386;54.314;10.022;2023-06-22T10:57:44;2.00;;;1.73;;
20454;SDS011;10386;54.314;10.022;2023-06-22T11:00:14;2.58;;;1.80;;
20454;SDS011;10386;54.314;10.022;2023-06-22T11:02:42;2.97;;;1.67;;
20454;SDS011;10386;54.314;10.022;2023-06-22T11:05:10;2.03;;;1.60;;
20454;SDS011;10386;54.314;10.022;2023-06-22T11:07:37;1.98;;;1.88;;
20454;SDS011;10386;54.314;10.022;2023-06-22T11:10:05;2.92;;;1.70;;
20454;SDS011;10386;54.314;10.022;2023-06-22T11:12:32;2.28;;;1.70;;
20454;SDS011;10386;54.314;10.022;2023-06-22T11:14:58;2.22;;;2.03;;
20454;SDS011;10386;54.314;10.022;2023-06-22T11:17:25;2.00;;;1.73;;
20454;SDS011;10386;54.314;10.022;2023-06-22T11:19:52;2.08;;;1.98;;
20454;SDS011;10386;54.314;10.022;2023-06-22T11:22:19;2.13;;;1.92;;
20454;SDS011;10386;54.314;10.022;2023-06-22T11:24:46;3.08;;;2.40;;
20454;SDS011;10386;54.314;10.022;2023-06-22T11:27:13;3.25;;;2.17;;
20454;SDS011;10386;54.314;10.022;2023-06-22T11:29:39;3.22;;;2.47;;
20454;SDS011;10386;54.314;10.022;2023-06-22T11:32:06;3.03;;;2.15;;
20454;SDS011;10386;54.314;10.022;2023-06-22T11:34:35;2.25;;;2.00;;
20454;SDS011;10386;54.314;10.022;2023-06-22T11:37:02;3.13;;;2.47;;
20454;SDS011;10386;54.314;10.022;2023-06-22T11:39:29;2.53;;;2.17;;
20454;SDS011;10386;54.314;10.022;2023-06-22T11:42:08;2.80;;;2.25;;
20454;SDS011;10386;54.314;10.022;2023-06-22T11:44:36;2.95;;;2.58;;
20454;SDS011;10386;54.314;10.022;2023-06-22T11:47:02;4.45;;;2.88;;
20454;SDS011;10386;54.314;10.022;2023-06-22T11:49:30;3.25;;;2.78;;
20454;SDS011;10386;54.314;10.022;2023-06-22T11:51:57;6.95;;;2.80;;
20454;SDS011;10386;54.314;10.022;2023-06-22T11:54:24;2.40;;;2.20;;
20454;SDS011;10386;54.314;10.022;2023-06-22T11:56:52;5.25;;;2.55;;
20454;SDS011;10386;54.314;10.022;2023-06-22T11:59:19;2.47;;;2.38;;
20454;SDS011;10386;54.314;10.022;2023-06-22T12:01:48;2.28;;;2.08;;
20454;SDS011;10386;54.314;10.022;2023-06-22T12:04:16;3.75;;;2.33;;
20454;SDS011;10386;54.314;10.022;2023-06-22T12:06:44;5.22;;;2.72;;
20454;SDS011;10386;54.314;10.022;2023-06-22T12:09:11;2.83;;;2.53;;
20454;SDS011;10386;54.314;10.022;2023-06-22T12:11:40;4.90;;;2.72;;
20454;SDS011;10386;54.314;10.022;2023-06-22T12:14:07;2.95;;;2.70;;
20454;SDS011;10386;54.314;10.022;2023-06-22T12:16:33;3.78;;;3.00;;
20454;SDS011;10386;54.314;10.022;2023-06-22T12:19:00;3.45;;;2.80;;
20454;SDS011;10386;54.314;10.022;2023-06-22T12:21:27;3.22;;;2.70;;
20454;SDS011;10386;54.314;10.022;2023-06-22T12:23:55;3.47;;;2.30;;
20454;SDS011;10386;54.314;10.022;2023-06-22T12:26:22;3.25;;;2.20;;
20454;SDS011;10386;54.314;10.022;2023-06-22T12:28:49;3.40;;;2.92;;
20454;SDS011;10386;54.314;10.022;2023-06-22T12:31:16;2.47;;;2.28;;
20454;SDS011;10386;54.314;10.022;2023-06-22T12:33:44;3.33;;;2.35;;
20454;SDS011;10386;54.314;10.022;2023-06-22T12:36:10;3.42;;;2.22;;
20454;SDS011;10386;54.314;10.022;2023-06-22T12:38:37;2.75;;;2.30;;
20454;SDS011;10386;54.314;10.022;2023-06-22T12:41:04;3.50;;;2.08;;
20454;SDS011;10386;54.314;10.022;2023-06-22T12:43:31;2.38;;;2.13;;
20454;SDS011;10386;54.314;10.022;2023-06-22T12:45:57;2.75;;;2.10;;
20454;SDS011;10386;54.314;10.022;2023-06-22T12:48:25;3.78;;;2.00;;
20454;SDS011;10386;54.314;10.022;2023-06-22T12:50:53;2.60;;;2.17;;
20454;SDS011;10386;54.314;10.022;2023-06-22T12:53:21;2.72;;;2.00;;
20454;SDS011;10386;54.314;10.022;2023-06-22T12:55:50;2.78;;;2.05;;
20454;SDS011;10386;54.314;10.022;2023-06-22T12:58:17;2.60;;;2.30;;
20454;SDS011;10386;54.314;10.022;2023-06-22T13:00:43;2.92;;;2.00;;
20454;SDS011;10386;54.314;10.022;2023-06-22T13:03:10;4.35;;;3.05;;
20454;SDS011;10386;54.314;10.022;2023-06-22T13:05:37;3.15;;;2.58;;
20454;SDS011;10386;54.314;10.022;2023-06-22T13:08:04;3.80;;;1.90;;
20454;SDS011;10386;54.314;10.022;2023-06-22T13:10:31;3.90;;;2.30;;
20454;SDS011;10386;54.314;10.022;2023-06-22T13:12:59;2.67;;;2.33;;
20454;SDS011;10386;54.314;10.022;2023-06-22T13:15:27;2.03;;;1.80;;
20454;SDS011;10386;54.314;10.022;2023-06-22T13:17:55;4.35;;;2.05;;
20454;SDS011;10386;54.314;10.022;2023-06-22T13:20:22;2.55;;;2.10;;
20454;SDS011;10386;54.314;10.022;2023-06-22T13:22:49;2.67;;;2.20;;
20454;SDS011;10386;54.314;10.022;2023-06-22T13:25:16;3.58;;;2.40;;
20454;SDS011;10386;54.314;10.022;2023-06-22T13:27:45;2.47;;;2.15;;
20454;SDS011;10386;54.314;10.022;2023-06-22T13:30:12;3.13;;;2.10;;
20454;SDS011;10386;54.314;10.022;2023-06-22T13:32:40;2.63;;;2.40;;
20454;SDS011;10386;54.314;10.022;2023-06-22T13:35:09;3.55;;;2.03;;
20454;SDS011;10386;54.314;10.022;2023-06-22T13:37:36;2.92;;;2.25;;
20454;SDS011;10386;54.314;10.022;2023-06-22T13:40:07;4.13;;;2.40;;
20454;SDS011;10386;54.314;10.022;2023-06-22T13:42:35;2.50;;;2.30;;
20454;SDS011;10386;54.314;10.022;2023-06-22T13:45:02;3.30;;;2.53;;
20454;SDS011;10386;54.314;10.022;2023-06-22T13:47:30;5.20;;;2.30;;
20454;SDS011;10386;54.314;10.022;2023-06-22T13:49:57;3.72;;;2.10;;
20454;SDS011;10386;54.314;10.022;2023-06-22T13:52:24;2.58;;;2.10;;
20454;SDS011;10386;54.314;10.022;2023-06-22T13:54:51;4.00;;;1.95;;
20454;SDS011;10386;54.314;10.022;2023-06-22T13:57:19;5.00;;;1.98;;
20454;SDS011;10386;54.314;10.022;2023-06-22T13:59:45;2.50;;;2.22;;
20454;SDS011;10386;54.314;10.022;2023-06-22T14:02:12;2.30;;;2.10;;
20454;SDS011;10386;54.314;10.022;2023-06-22T14:04:39;2.42;;;2.28;;
20454;SDS011;10386;54.314;10.022;2023-06-22T14:07:06;3.25;;;2.42;;
20454;SDS011;10386;54.314;10.022;2023-06-22T14:09:33;2.47;;;2.25;;
20454;SDS011;10386;54.314;10.022;2023-06-22T14:12:07;2.20;;;2.00;;
20454;SDS011;10386;54.314;10.022;2023-06-22T14:14:34;3.15;;;2.50;;
20454;SDS011;10386;54.314;10.022;2023-06-22T14:17:01;2.70;;;2.00;;
20454;SDS011;10386;54.314;10.022;2023-06-22T14:19:28;2.45;;;1.83;;
20454;SDS011;10386;54.314;10.022;2023-06-22T14:21:55;2.10;;;1.90;;
20454;SDS011;10386;54.314;10.022;2023-06-22T14:24:23;2.20;;;2.00;;
20454;SDS011;10386;54.314;10.022;2023-06-22T14:26:53;3.17;;;2.15;;
20454;SDS011;10386;54.314;10.022;2023-06-22T14:29:21;2.85;;;2.00;;
20454;SDS011;10386;54.314;10.022;2023-06-22T14:31:48;3.75;;;2.30;;
20454;SDS011;10386;54.314;10.022;2023-06-22T14:34:18;2.72;;;2.00;;
20454;SDS011;10386;54.314;10.022;2023-06-22T14:36:45;3.13;;;1.98;;
20454;SDS011;10386;54.314;10.022;2023-06-22T14:39:12;2.92;;;2.35;;
20454;SDS011;10386;54.314;10.022;2023-06-22T14:41:38;2.70;;;2.10;;
20454;SDS011;10386;54.314;10.022;2023-06-22T14:44:05;1.92;;;1.77;;
20454;SDS011;10386;54.314;10.022;2023-06-22T14:46:32;3.17;;;1.80;;
20454;SDS011;10386;54.314;10.022;2023-06-22T14:49:02;2.00;;;1.75;;